Verdigre, Nebraska
Current Conditions -  °F | °C
As of 1:15 PM on Monday 22 Dec 2014 (Local Time) from KONL Reporting Station
Overcast Overcast  
Wind Chill: 30°   Ceiling: 1800
Heat Index: 39°   Visibility: 10mi
Dew Point: 37°   Wind: 16mph
Humidity: 91%   Direction: 300°WNW
Pressure: 29.44"   Gusts: NA
Location:  42.6°N, 98.03°W
Report Text: KONL 221915Z AUTO 30014KT 10SM OVC018 04/03 A2944 RMK AO2 T00400027
Loading
Personal Weather Stations






























Interactive Weather Map New forecast layout! Learn more

10-Day Weather Forecast

Advertisements
Track Severe Weather on mobile